createdAt,value
2022-08-19T00:01:37.928Z,84.19
2022-08-19T00:04:09.397Z,84.01
2022-08-19T00:06:37.524Z,84.25
2022-08-19T00:09:08.055Z,85.36
2022-08-19T00:11:36.883Z,84.89
2022-08-19T00:14:05.021Z,84.83
2022-08-19T00:16:31.593Z,84.67
2022-08-19T00:18:58.106Z,84.86
2022-08-19T00:21:26.859Z,85.54
2022-08-19T00:23:54.798Z,84.97
2022-08-19T00:26:21.586Z,86.31
2022-08-19T00:28:48.084Z,86.06
2022-08-19T00:31:14.585Z,87.11
2022-08-19T00:33:40.979Z,86.77
2022-08-19T00:36:10.402Z,86.05
2022-08-19T00:38:38.952Z,87.26
2022-08-19T00:41:06.848Z,87.13
2022-08-19T00:43:34.266Z,86.25
2022-08-19T00:46:00.858Z,86.98
2022-08-19T00:48:27.475Z,85.67
2022-08-19T00:50:56.669Z,86.95
2022-08-19T00:53:27.408Z,87.08
2022-08-19T00:55:57.908Z,86.91
2022-08-19T00:58:33.042Z,85.52
2022-08-19T01:00:59.860Z,87.53
2022-08-19T01:03:26.379Z,86.78
2022-08-19T01:05:55.026Z,86.54
2022-08-19T01:08:22.391Z,86.34
2022-08-19T01:10:58.876Z,86.27
2022-08-19T01:13:28.721Z,86.97
2022-08-19T01:16:12.179Z,85.70
2022-08-19T01:18:42.298Z,86.63
2022-08-19T01:21:17.828Z,86.81
2022-08-19T01:23:45.491Z,86.20
2022-08-19T01:26:15.925Z,86.17
2022-08-19T01:28:44.092Z,86.35
2022-08-19T01:31:12.533Z,86.20
2022-08-19T01:33:55.643Z,85.83
2022-08-19T01:36:43.208Z,85.29
2022-08-19T01:39:13.455Z,85.13
2022-08-19T01:41:40.090Z,84.15
2022-08-19T01:44:18.370Z,84.85
2022-08-19T01:46:48.249Z,83.99
2022-08-19T01:49:15.785Z,84.12
2022-08-19T01:51:42.260Z,85.52
2022-08-19T01:54:38.935Z,83.98
2022-08-19T01:57:53.910Z,84.79
2022-08-19T02:00:23.351Z,84.22
2022-08-19T02:02:50.057Z,84.43
2022-08-19T02:05:18.869Z,86.10
2022-08-19T02:07:45.722Z,86.07
2022-08-19T02:10:16.812Z,85.43
2022-08-19T02:12:43.541Z,85.91
2022-08-19T02:15:10.653Z,85.54
2022-08-19T02:17:38.147Z,86.35
2022-08-19T02:20:07.127Z,86.17
2022-08-19T02:22:33.987Z,86.10
2022-08-19T02:25:00.868Z,86.43
2022-08-19T02:27:27.538Z,86.49
2022-08-19T02:29:54.479Z,85.85
2022-08-19T02:32:21.002Z,86.77
2022-08-19T02:34:48.706Z,87.68
2022-08-19T02:37:35.048Z,87.60
2022-08-19T02:40:02.470Z,87.82
2022-08-19T02:42:29.899Z,87.30
2022-08-19T02:44:57.034Z,87.39
2022-08-19T02:47:23.479Z,87.14
2022-08-19T02:49:50.814Z,86.47
2022-08-19T02:52:17.561Z,85.93
2022-08-19T02:54:44.961Z,86.81
2022-08-19T02:57:11.666Z,86.97
2022-08-19T02:59:38.077Z,87.25
2022-08-19T03:02:04.607Z,87.15
2022-08-19T03:04:31.010Z,87.23
2022-08-19T03:07:02.579Z,87.22
2022-08-19T03:09:38.402Z,86.78
2022-08-19T03:12:05.770Z,87.09
2022-08-19T03:14:34.060Z,87.25
2022-08-19T03:17:00.686Z,86.72
2022-08-19T03:19:27.166Z,86.51
2022-08-19T03:21:53.704Z,87.03
2022-08-19T03:24:21.105Z,86.02
2022-08-19T03:26:50.989Z,87.01
2022-08-19T03:29:30.294Z,86.30
2022-08-19T03:31:56.961Z,86.47
2022-08-19T03:34:29.861Z,86.32
2022-08-19T03:36:59.061Z,85.71
2022-08-19T03:39:26.664Z,85.88
2022-08-19T03:42:32.205Z,87.06
2022-08-19T03:44:45.490Z,87.32
2022-08-19T03:47:16.920Z,87.26
2022-08-19T03:49:43.769Z,86.98
2022-08-19T03:52:10.289Z,86.88
2022-08-19T03:54:38.926Z,86.10
2022-08-19T03:57:05.990Z,86.03
2022-08-19T03:59:36.211Z,86.76
2022-08-19T04:02:09.586Z,87.34
2022-08-19T04:04:38.386Z,87.82
2022-08-19T04:07:05.542Z,87.43
2022-08-19T04:09:32.044Z,87.37
2022-08-19T04:11:58.810Z,86.66
2022-08-19T04:14:30.414Z,87.15
2022-08-19T04:16:57.664Z,86.64
2022-08-19T04:19:24.259Z,86.45
2022-08-19T04:21:53.653Z,86.28
2022-08-19T04:24:21.465Z,86.04
2022-08-19T04:26:49.291Z,87.09
2022-08-19T04:29:22.697Z,87.32
2022-08-19T04:31:49.773Z,86.55
2022-08-19T04:34:18.706Z,86.14
2022-08-19T04:36:45.914Z,85.82
2022-08-19T04:39:19.375Z,86.46
2022-08-19T04:42:04.933Z,86.01
2022-08-19T04:44:35.744Z,86.32
2022-08-19T04:47:11.236Z,86.09
2022-08-19T04:49:38.158Z,86.05
2022-08-19T04:52:04.580Z,86.84
2022-08-19T04:54:38.587Z,86.35
2022-08-19T04:57:08.413Z,86.26
2022-08-19T04:59:36.166Z,86.27
2022-08-19T05:02:03.719Z,86.73
2022-08-19T05:04:31.882Z,86.53
2022-08-19T05:07:00.888Z,85.93
2022-08-19T05:09:36.190Z,85.65
2022-08-19T05:12:15.551Z,85.49
2022-08-19T05:14:42.037Z,85.16
2022-08-19T05:17:26.541Z,85.06
2022-08-19T05:20:12.721Z,84.41
2022-08-19T05:22:39.407Z,84.93
2022-08-19T05:25:13.867Z,84.89
2022-08-19T05:27:42.220Z,84.68
2022-08-19T05:30:10.131Z,84.98
2022-08-19T05:32:36.716Z,84.62
2022-08-19T05:35:04.812Z,85.38
2022-08-19T05:37:31.301Z,85.25
2022-08-19T05:39:57.823Z,84.54
2022-08-19T05:42:24.363Z,83.89
2022-08-19T05:44:51.746Z,83.69
2022-08-19T05:47:20.653Z,84.24
2022-08-19T05:49:47.849Z,84.66
2022-08-19T05:52:19.504Z,83.85
2022-08-19T05:54:52.117Z,83.95
2022-08-19T05:57:21.606Z,83.46
2022-08-19T05:59:49.421Z,83.25
2022-08-19T06:02:20.146Z,83.12
2022-08-19T06:04:46.895Z,83.40
2022-08-19T06:07:13.379Z,83.92
2022-08-19T06:09:41.275Z,83.85
2022-08-19T06:16:41.167Z,81.75
2022-08-19T06:19:11.596Z,81.64
2022-08-19T06:21:41.421Z,81.23
2022-08-19T06:24:10.995Z,80.87
2022-08-19T06:26:39.859Z,80.79
2022-08-19T06:29:07.713Z,80.49
2022-08-19T06:31:35.985Z,80.48
2022-08-19T06:34:05.201Z,80.51
2022-08-19T06:36:38.350Z,80.09
2022-08-19T06:39:11.161Z,79.63
2022-08-19T06:41:47.127Z,80.04
2022-08-19T06:44:18.923Z,80.59
2022-08-19T06:46:53.693Z,80.33
2022-08-19T06:49:23.137Z,80.53
2022-08-19T06:51:50.397Z,79.94
2022-08-19T06:54:20.268Z,80.08
2022-08-19T06:56:47.789Z,79.95
2022-08-19T06:59:17.378Z,79.43
2022-08-19T07:01:56.168Z,79.72
2022-08-19T07:04:26.289Z,79.26
2022-08-19T07:07:20.194Z,79.13
2022-08-19T07:09:57.172Z,78.59
2022-08-19T07:12:30.636Z,78.64
2022-08-19T07:14:58.711Z,78.80
2022-08-19T07:17:26.029Z,77.90
2022-08-19T07:19:54.481Z,77.88
2022-08-19T07:22:23.430Z,77.22
2022-08-19T07:24:51.980Z,77.87
2022-08-19T07:27:24.284Z,76.43
2022-08-19T07:29:57.358Z,75.72
2022-08-19T07:32:27.535Z,76.81
2022-08-19T07:34:54.686Z,75.27
2022-08-19T07:37:21.192Z,75.14
2022-08-19T07:39:48.253Z,74.54
2022-08-19T07:42:15.427Z,74.96
2022-08-19T07:44:42.680Z,74.59
2022-08-19T07:47:48.779Z,75.08
2022-08-19T07:50:07.888Z,74.41
2022-08-19T07:52:35.238Z,74.27
2022-08-19T07:55:04.661Z,74.92
2022-08-19T07:57:31.311Z,75.73
2022-08-19T07:59:57.894Z,76.29
2022-08-19T08:02:24.433Z,76.31
2022-08-19T08:05:29.239Z,75.98
2022-08-19T08:08:14.436Z,76.26
2022-08-19T08:10:41.057Z,76.13
2022-08-19T08:13:11.002Z,76.37
2022-08-19T08:15:42.673Z,76.00
2022-08-19T08:18:10.163Z,75.92
2022-08-19T08:20:36.596Z,75.42
2022-08-19T08:23:21.767Z,75.65
2022-08-19T08:25:49.387Z,75.59
2022-08-19T08:28:17.621Z,76.32
2022-08-19T08:30:46.672Z,75.69
2022-08-19T08:35:46.721Z,76.01
2022-08-19T08:38:14.093Z,75.69
2022-08-19T08:40:49.669Z,74.52
2022-08-19T08:43:24.321Z,74.74
2022-08-19T08:46:16.218Z,74.35
2022-08-19T08:49:12.974Z,74.73
2022-08-19T08:51:45.105Z,74.73
2022-08-19T08:54:18.762Z,75.53
2022-08-19T08:56:46.826Z,75.34
2022-08-19T08:59:18.128Z,75.54
2022-08-19T09:01:44.610Z,75.73
2022-08-19T09:04:13.999Z,75.97
2022-08-19T09:06:55.931Z,76.03
2022-08-19T09:09:40.481Z,76.08
2022-08-19T09:12:27.039Z,76.75
2022-08-19T09:15:05.249Z,76.98
2022-08-19T09:17:33.494Z,77.02
2022-08-19T09:20:22.085Z,77.03
2022-08-19T09:22:50.197Z,76.28
2022-08-19T09:25:27.054Z,76.67
2022-08-19T09:28:02.882Z,76.57
2022-08-19T09:30:35.743Z,76.68
2022-08-19T09:33:02.285Z,76.92
2022-08-19T09:35:30.764Z,76.80
2022-08-19T09:38:00.406Z,76.53
2022-08-19T09:40:29.980Z,77.27
2022-08-19T09:42:58.093Z,77.04
2022-08-19T09:45:24.854Z,76.23
2022-08-19T09:47:54.466Z,74.46
2022-08-19T09:50:22.769Z,72.87
2022-08-19T09:52:57.132Z,72.56
2022-08-19T09:55:32.053Z,73.03
2022-08-19T09:58:01.302Z,73.26
2022-08-19T10:00:27.910Z,72.81
2022-08-19T10:02:54.392Z,73.54
2022-08-19T10:05:42.536Z,72.82
2022-08-19T10:08:13.827Z,72.67
2022-08-19T10:10:46.228Z,72.71
2022-08-19T10:13:15.949Z,72.97
2022-08-19T10:15:47.750Z,73.07
2022-08-19T10:18:19.098Z,73.14
2022-08-19T10:20:51.334Z,72.52
2022-08-19T10:23:20.104Z,72.21
2022-08-19T10:25:46.990Z,72.21
2022-08-19T10:28:14.739Z,72.58
2022-08-19T10:30:42.822Z,71.87
2022-08-19T10:33:11.179Z,72.58
2022-08-19T10:35:42.765Z,71.93
2022-08-19T10:38:30.609Z,71.36
2022-08-19T10:40:59.500Z,71.36
2022-08-19T10:43:26.338Z,71.42
2022-08-19T10:45:56.444Z,71.76
2022-08-19T10:48:23.027Z,70.85
2022-08-19T10:51:08.185Z,71.11
2022-08-19T10:53:34.701Z,70.78
2022-08-19T10:56:21.268Z,70.72
2022-08-19T10:58:48.121Z,70.59
2022-08-19T11:01:14.655Z,70.74
2022-08-19T11:03:41.167Z,71.19
2022-08-19T11:06:09.755Z,71.64
2022-08-19T11:08:38.686Z,71.21
2022-08-19T11:11:07.009Z,71.66
2022-08-19T11:13:37.084Z,70.71
2022-08-19T11:16:26.586Z,69.76
2022-08-19T11:18:59.312Z,70.33
2022-08-19T11:21:27.469Z,70.29
2022-08-19T11:23:59.112Z,70.29
2022-08-19T11:26:25.970Z,70.35
2022-08-19T11:28:55.184Z,71.13
2022-08-19T11:31:28.766Z,71.31
2022-08-19T11:33:58.135Z,71.56
2022-08-19T11:36:24.688Z,72.42
2022-08-19T11:38:51.727Z,74.46
2022-08-19T11:41:20.716Z,77.18
2022-08-19T11:43:47.769Z,79.58
2022-08-19T11:46:16.535Z,80.47
2022-08-19T11:48:43.766Z,80.98
2022-08-19T11:51:13.407Z,81.03
2022-08-19T11:53:40.415Z,83.59
2022-08-19T11:56:08.453Z,85.62
2022-08-19T11:58:35.812Z,83.84
2022-08-19T12:01:02.533Z,86.65
2022-08-19T12:03:29.056Z,85.72
2022-08-19T12:05:55.717Z,87.21
2022-08-19T12:08:22.156Z,86.41
2022-08-19T12:10:48.693Z,85.92
2022-08-19T12:13:19.547Z,85.61
2022-08-19T12:15:48.278Z,85.57
2022-08-19T12:18:15.340Z,84.65
2022-08-19T12:20:44.028Z,84.66
2022-08-19T12:23:10.932Z,84.80
2022-08-19T12:25:50.863Z,84.08
2022-08-19T12:28:17.838Z,85.20
2022-08-19T12:30:44.338Z,84.68
2022-08-19T12:33:10.795Z,85.04
2022-08-19T12:35:45.217Z,85.85
2022-08-19T12:38:12.548Z,86.54
2022-08-19T12:40:40.952Z,87.24
2022-08-19T12:43:08.415Z,88.36
2022-08-19T12:45:35.468Z,87.92
2022-08-19T12:48:03.786Z,89.31
2022-08-19T12:50:50.483Z,90.91
2022-08-19T12:53:17.112Z,89.66
2022-08-19T12:55:46.425Z,89.94
2022-08-19T12:58:13.550Z,89.68
2022-08-19T13:00:40.803Z,90.62
2022-08-19T13:03:07.293Z,88.89
2022-08-19T13:05:37.073Z,89.17
2022-08-19T13:08:03.807Z,90.61
2022-08-19T13:10:35.751Z,90.62
2022-08-19T13:13:08.206Z,93.52
2022-08-19T13:15:37.120Z,94.22
2022-08-19T13:18:04.398Z,92.83
2022-08-19T13:20:31.029Z,92.59
2022-08-19T13:22:58.220Z,92.34
2022-08-19T13:25:26.387Z,91.30
2022-08-19T13:27:53.541Z,93.56
2022-08-19T13:30:39.746Z,92.21
2022-08-19T13:33:12.393Z,91.11
2022-08-19T13:35:50.822Z,91.45
2022-08-19T13:38:20.162Z,92.05
2022-08-19T13:40:47.560Z,91.41
2022-08-19T13:43:22.962Z,90.69
2022-08-19T13:45:58.591Z,91.26
2022-08-19T13:48:27.514Z,90.15
2022-08-19T13:50:56.994Z,87.62
2022-08-19T13:53:23.566Z,86.73
2022-08-19T13:55:53.267Z,87.96
2022-08-19T13:58:25.005Z,88.79
2022-08-19T14:00:51.842Z,89.44
2022-08-19T14:03:18.516Z,89.83
2022-08-19T14:05:45.129Z,90.96
2022-08-19T14:08:13.194Z,90.00
2022-08-19T14:10:40.138Z,91.17
2022-08-19T14:13:06.557Z,91.67
2022-08-19T14:15:33.185Z,89.40
2022-08-19T14:17:59.729Z,90.38
2022-08-19T14:20:26.696Z,91.30
2022-08-19T14:22:54.886Z,90.63
2022-08-19T14:25:26.792Z,91.37
2022-08-19T14:27:53.806Z,90.71
2022-08-19T14:30:29.139Z,90.58
2022-08-19T14:32:59.101Z,92.47
2022-08-19T14:35:27.685Z,91.63
2022-08-19T14:37:56.716Z,91.42
2022-08-19T14:40:26.949Z,91.54
2022-08-19T14:43:01.184Z,91.54
2022-08-19T14:45:29.601Z,91.52
2022-08-19T14:47:56.330Z,93.42
2022-08-19T14:50:23.469Z,93.37
2022-08-19T14:52:50.635Z,92.92
2022-08-19T14:55:18.216Z,94.26
2022-08-19T14:57:45.445Z,93.30
2022-08-19T15:00:13.986Z,93.99
2022-08-19T15:02:46.635Z,92.99
2022-08-19T15:05:13.688Z,93.16
2022-08-19T15:07:41.249Z,93.34
2022-08-19T15:10:08.983Z,93.82
2022-08-19T15:12:36.094Z,94.28
2022-08-19T15:15:04.933Z,96.00
2022-08-19T15:17:43.456Z,96.10
2022-08-19T15:20:17.157Z,96.26
2022-08-19T15:22:43.670Z,97.03
2022-08-19T15:25:12.929Z,97.04
2022-08-19T15:27:41.480Z,95.63
2022-08-19T15:30:09.337Z,95.75
2022-08-19T15:32:37.411Z,96.30
2022-08-19T15:35:06.248Z,95.39
2022-08-19T15:37:37.029Z,95.57
2022-08-19T15:40:08.957Z,97.24
2022-08-19T15:42:39.046Z,95.75
2022-08-19T15:45:06.642Z,95.76
2022-08-19T15:47:34.846Z,97.23
2022-08-19T15:50:21.336Z,95.49
2022-08-19T15:52:53.934Z,96.28
2022-08-19T15:55:33.031Z,96.87
2022-08-19T15:58:28.933Z,98.51
2022-08-19T16:01:21.162Z,98.57
2022-08-19T16:04:14.140Z,99.09
2022-08-19T16:06:47.860Z,97.39
2022-08-19T16:09:15.647Z,96.87
2022-08-19T16:11:45.785Z,94.77
2022-08-19T16:14:14.566Z,95.51
2022-08-19T16:16:41.051Z,96.55
2022-08-19T16:19:10.406Z,96.44
2022-08-19T16:21:41.779Z,91.58
2022-08-19T16:24:10.754Z,91.82
2022-08-19T16:26:37.381Z,91.73
2022-08-19T16:29:08.758Z,92.43
2022-08-19T16:31:38.541Z,92.41
2022-08-19T16:34:06.062Z,93.38
2022-08-19T16:36:33.768Z,93.86
2022-08-19T16:39:01.113Z,92.63
2022-08-19T16:41:28.608Z,92.90
2022-08-19T16:43:55.337Z,93.49
2022-08-19T16:46:23.332Z,94.23
2022-08-19T16:48:54.206Z,94.73
2022-08-19T16:51:22.567Z,97.12
2022-08-19T16:53:49.674Z,95.80
2022-08-19T16:56:16.201Z,94.63
2022-08-19T16:58:43.195Z,94.67
2022-08-19T17:01:10.657Z,96.76
2022-08-19T17:03:39.893Z,97.60
2022-08-19T17:06:19.052Z,97.21
2022-08-19T17:08:50.071Z,96.51
2022-08-19T17:11:18.948Z,95.44
2022-08-19T17:13:47.964Z,96.31
2022-08-19T17:16:15.851Z,97.42
2022-08-19T17:18:42.338Z,96.99
2022-08-19T17:21:08.847Z,97.42
2022-08-19T17:23:42.420Z,98.54
2022-08-19T17:26:14.017Z,98.07
2022-08-19T17:28:45.445Z,97.61
2022-08-19T17:31:12.105Z,98.48
2022-08-19T17:33:41.345Z,98.75
2022-08-19T17:36:08.976Z,97.48
2022-08-19T17:38:36.975Z,97.04
2022-08-19T17:41:06.375Z,98.22
2022-08-19T17:43:38.939Z,97.58
2022-08-19T17:46:11.101Z,97.05
2022-08-19T17:48:38.859Z,96.06
2022-08-19T17:51:14.828Z,95.89
2022-08-19T17:53:41.421Z,96.05
2022-08-19T17:56:07.962Z,96.06
2022-08-19T17:58:34.642Z,96.77
2022-08-19T18:01:02.773Z,95.12
2022-08-19T18:03:30.214Z,92.83
2022-08-19T18:05:57.074Z,86.88
2022-08-19T18:08:23.956Z,86.95
2022-08-19T18:10:50.766Z,87.08
2022-08-19T18:13:18.102Z,88.35
2022-08-19T18:15:44.649Z,87.55
2022-08-19T18:18:14.934Z,89.18
2022-08-19T18:20:42.458Z,90.52
2022-08-19T18:23:43.911Z,90.43
2022-08-19T18:25:56.122Z,92.93
2022-08-19T18:28:23.834Z,93.41
2022-08-19T18:30:50.263Z,93.95
2022-08-19T18:33:16.830Z,95.74
2022-08-19T18:35:49.408Z,95.03
2022-08-19T18:38:37.654Z,94.29
2022-08-19T18:41:23.513Z,94.98
2022-08-19T18:44:08.806Z,94.86
2022-08-19T18:46:54.034Z,94.83
2022-08-19T18:49:27.738Z,94.73
2022-08-19T18:51:55.787Z,93.65
2022-08-19T18:54:23.917Z,92.90
2022-08-19T18:56:55.553Z,93.83
2022-08-19T18:59:27.481Z,94.19
2022-08-19T19:01:56.615Z,94.86
2022-08-19T19:04:29.352Z,95.74
2022-08-19T19:06:55.844Z,96.30
2022-08-19T19:09:24.623Z,96.64
2022-08-19T19:11:58.016Z,96.57
2022-08-19T19:14:48.741Z,95.27
2022-08-19T19:17:15.915Z,96.98
2022-08-19T19:19:42.903Z,96.92
2022-08-19T19:22:12.561Z,96.78
2022-08-19T19:24:44.137Z,96.97
2022-08-19T19:27:12.959Z,96.85
2022-08-19T19:29:40.841Z,96.18
2022-08-19T19:32:11.594Z,95.57
2022-08-19T19:34:39.467Z,95.91
2022-08-19T19:37:05.987Z,96.81
2022-08-19T19:39:45.092Z,97.08
2022-08-19T19:42:20.555Z,97.10
2022-08-19T19:44:50.105Z,97.59
2022-08-19T19:47:17.477Z,97.28
2022-08-19T19:52:38.440Z,96.00
2022-08-19T19:55:05.518Z,95.84
2022-08-19T19:57:32.040Z,97.04
2022-08-19T19:59:58.719Z,97.16
2022-08-19T20:02:25.322Z,97.15
2022-08-19T20:04:52.092Z,97.22
2022-08-19T20:07:38.672Z,97.11
2022-08-19T20:10:05.703Z,96.87
2022-08-19T20:12:32.132Z,96.68
2022-08-19T20:14:58.601Z,96.67
2022-08-19T20:17:25.042Z,97.64
2022-08-19T20:19:51.495Z,97.56
2022-08-19T20:22:19.038Z,97.38
2022-08-19T20:24:45.762Z,97.34
2022-08-19T20:27:12.635Z,97.50
2022-08-19T20:29:41.481Z,96.43
2022-08-19T20:32:10.357Z,96.81
2022-08-19T20:34:37.316Z,97.59
2022-08-19T20:37:04.705Z,97.63
2022-08-19T20:39:31.288Z,97.42
2022-08-19T20:41:57.818Z,96.38
2022-08-19T20:44:27.177Z,97.40
2022-08-19T20:46:54.753Z,97.65
2022-08-19T20:49:27.014Z,97.98
2022-08-19T20:51:54.742Z,98.64
2022-08-19T20:54:21.724Z,97.09
2022-08-19T20:56:48.299Z,97.94
2022-08-19T20:59:14.888Z,98.50
2022-08-19T21:01:41.576Z,99.03
2022-08-19T21:04:08.096Z,99.29
2022-08-19T21:06:34.641Z,99.34
2022-08-19T21:09:01.264Z,99.55
2022-08-19T21:11:27.779Z,98.58
2022-08-19T21:13:54.340Z,98.84
2022-08-19T21:16:20.776Z,99.85
2022-08-19T21:18:48.444Z,100.00
2022-08-19T21:21:15.903Z,100.00
2022-08-19T21:23:44.095Z,100.00
2022-08-19T21:26:11.025Z,100.00
2022-08-19T21:28:37.693Z,100.00
2022-08-19T21:31:06.377Z,100.00
2022-08-19T21:33:55.557Z,100.00
2022-08-19T21:36:39.936Z,100.00
2022-08-19T21:39:06.657Z,100.00
2022-08-19T21:41:33.178Z,100.00
2022-08-19T21:43:59.784Z,100.00
2022-08-19T21:46:26.282Z,100.00
2022-08-19T21:48:52.760Z,100.00
2022-08-19T21:51:19.362Z,99.26
2022-08-19T21:53:47.904Z,98.74
2022-08-19T21:56:15.156Z,99.18
2022-08-19T21:58:41.680Z,100.00
2022-08-19T22:01:09.157Z,98.62
2022-08-19T22:03:37.500Z,99.64
2022-08-19T22:06:06.644Z,99.83
2022-08-19T22:08:33.131Z,99.96
2022-08-19T22:10:59.678Z,99.36
2022-08-19T22:13:27.681Z,99.26
2022-08-19T22:15:55.268Z,99.04
2022-08-19T22:18:22.037Z,98.93
2022-08-19T22:20:48.622Z,99.73
2022-08-19T22:23:15.091Z,99.89
2022-08-19T22:25:46.004Z,99.06
2022-08-19T22:28:18.756Z,99.99
2022-08-19T22:30:56.474Z,100.00
2022-08-19T22:33:23.895Z,99.87
2022-08-19T22:35:52.371Z,99.98
2022-08-19T22:38:19.360Z,99.96
2022-08-19T22:40:48.417Z,99.90
2022-08-19T22:43:19.945Z,100.00
2022-08-19T22:45:48.097Z,100.00
2022-08-19T22:48:16.285Z,100.00
2022-08-19T22:51:04.932Z,100.00
2022-08-19T22:53:36.883Z,100.00
2022-08-19T22:56:06.577Z,100.00
2022-08-19T22:58:33.111Z,100.00
2022-08-19T23:00:59.900Z,100.00
2022-08-19T23:03:26.690Z,100.00
2022-08-19T23:05:56.040Z,100.00
2022-08-19T23:08:23.469Z,100.00
2022-08-19T23:10:50.207Z,100.00
2022-08-19T23:13:17.920Z,100.00
2022-08-19T23:15:46.120Z,100.00
2022-08-19T23:18:14.173Z,100.00
2022-08-19T23:20:44.775Z,100.00
2022-08-19T23:23:24.274Z,100.00
2022-08-19T23:25:56.264Z,100.00
2022-08-19T23:28:42.496Z,100.00
2022-08-19T23:31:09.284Z,100.00
2022-08-19T23:33:51.377Z,100.00
2022-08-19T23:36:19.828Z,100.00
2022-08-19T23:38:48.296Z,100.00
2022-08-19T23:41:17.326Z,100.00
2022-08-19T23:43:44.625Z,100.00
2022-08-19T23:46:13.554Z,99.88
2022-08-19T23:48:40.374Z,100.00
2022-08-19T23:51:09.528Z,100.00
2022-08-19T23:53:41.247Z,100.00
2022-08-19T23:56:09.983Z,100.00
2022-08-19T23:58:37.849Z,100.00
